Time;durP1;ratioP1;P1;durP2;ratioP2;P2;SDS_P1;SDS_P2;PMS_P1;PMS_P2;Temp;Humidity;BMP_temperature;BMP_pressure;BME280_temperature;BME280_humidity;BME280_pressure;Samples;Min_cycle;Max_cycle;Signal;HPM_P1;HPM_P2
2022/05/19 00:01:04;;;;;;;;;;;19.80;87.30;;;;;;4978340;28;19933;-79
2022/05/19 00:03:33;;;;;;;;;;;19.80;87.40;;;;;;4985311;28;20192;-80
2022/05/19 00:06:00;;;;;;;;;;;19.80;87.30;;;;;;4984809;28;20150;-80
2022/05/19 00:08:27;;;;;;;;;;;19.70;87.20;;;;;;4983497;28;20932;-80
2022/05/19 00:10:56;;;;;;;;;;;19.70;87.10;;;;;;4984205;28;19933;-80
2022/05/19 00:13:24;;;;;;;;;;;19.70;86.90;;;;;;4985932;28;20311;-81
2022/05/19 00:15:51;;;;;;;;;;;19.60;86.80;;;;;;4988582;28;19944;-83
2022/05/19 00:18:19;;;;;;;;;;;19.60;86.80;;;;;;4989185;28;20923;-82
2022/05/19 00:20:46;;;;;;;;;;;19.60;86.90;;;;;;4987920;28;19940;-82
2022/05/19 00:23:13;;;;;;;;;;;19.50;86.80;;;;;;4986988;28;20548;-82
2022/05/19 00:25:40;;;;;;;;;;;19.50;86.90;;;;;;4983975;28;20334;-82
2022/05/19 00:28:07;;;;;;;;;;;19.50;86.90;;;;;;4987199;28;20450;-79
2022/05/19 00:30:36;;;;;;;;;;;19.40;86.90;;;;;;4985681;28;19932;-79
2022/05/19 00:33:03;;;;;;;;;;;19.40;86.80;;;;;;4985698;28;19933;-80
2022/05/19 00:35:30;;;;;;;;;;;19.40;86.70;;;;;;4980313;28;19933;-78
2022/05/19 00:37:57;;;;;;;;;;;19.40;86.70;;;;;;4984390;28;22185;-79
2022/05/19 00:40:24;;;;;;;;;;;19.40;87.00;;;;;;4982980;28;19933;-79
2022/05/19 00:42:51;;;;;;;;;;;19.30;87.00;;;;;;4987648;28;20028;-80
2022/05/19 00:45:19;;;;;;;;;;;19.30;90.60;;;;;;4976910;28;19940;-80
2022/05/19 00:47:51;;;;;;;;;;;19.20;91.30;;;;;;4986359;28;19995;-82
2022/05/19 00:50:20;;;;;;;;;;;19.20;87.00;;;;;;4983017;28;19948;-79
2022/05/19 00:52:48;;;;;;;;;;;19.20;87.20;;;;;;4999784;28;19929;-78
2022/05/19 00:55:18;;;;;;;;;;;19.20;87.00;;;;;;4985310;28;19964;-78
2022/05/19 00:57:48;;;;;;;;;;;19.20;87.10;;;;;;4986153;28;19929;-78
2022/05/19 01:00:17;;;;;;;;;;;19.20;87.30;;;;;;4983301;28;19940;-77
2022/05/19 01:02:46;;;;;;;;;;;19.10;87.20;;;;;;4999810;28;19933;-75
2022/05/19 01:05:16;;;;;;;;;;;19.10;87.30;;;;;;4986347;28;19943;-79
2022/05/19 01:07:46;;;;;;;;;;;19.10;87.50;;;;;;4983556;28;19967;-82
2022/05/19 01:10:13;;;;;;;;;;;19.00;87.50;;;;;;4981218;28;20076;-79
2022/05/19 01:12:41;;;;;;;;;;;19.00;87.60;;;;;;4978518;28;20159;-79
2022/05/19 01:15:11;;;;;;;;;;;19.00;87.60;;;;;;4981990;28;19933;-75
2022/05/19 01:17:38;;;;;;;;;;;18.90;87.70;;;;;;4988833;28;19928;-82
2022/05/19 01:20:07;;;;;;;;;;;19.00;87.80;;;;;;4986619;28;20463;-80
2022/05/19 01:22:39;;;;;;;;;;;18.90;87.70;;;;;;4979440;28;19933;-78
2022/05/19 01:25:10;;;;;;;;;;;18.90;87.90;;;;;;4977924;28;19936;-76
2022/05/19 01:27:39;;;;;;;;;;;18.90;88.40;;;;;;4991691;28;19933;-77
2022/05/19 01:30:09;;;;;;;;;;;18.80;87.80;;;;;;4986994;28;20421;-77
2022/05/19 01:32:36;;;;;;;;;;;18.80;87.80;;;;;;4987805;28;20031;-77
2022/05/19 01:35:03;;;;;;;;;;;18.80;87.80;;;;;;4980513;28;20214;-77
2022/05/19 01:37:30;;;;;;;;;;;18.80;87.90;;;;;;4998488;28;19933;-77
2022/05/19 01:40:15;;;;;;;;;;;18.70;87.90;;;;;;4984587;28;19932;-78
2022/05/19 01:42:51;;;;;;;;;;;18.70;87.90;;;;;;4992099;28;19929;-76
2022/05/19 01:45:28;;;;;;;;;;;18.70;88.00;;;;;;4993791;28;19940;-77
2022/05/19 01:47:59;;;;;;;;;;;18.70;88.00;;;;;;4984242;28;19939;-77
2022/05/19 01:50:35;;;;;;;;;;;18.60;88.00;;;;;;4982183;28;19925;-77
2022/05/19 01:53:04;;;;;;;;;;;18.60;88.00;;;;;;4984266;28;19944;-76
2022/05/19 01:55:33;;;;;;;;;;;18.60;88.10;;;;;;4986020;28;19965;-77
2022/05/19 01:58:04;;;;;;;;;;;18.50;88.00;;;;;;4995170;28;19933;-77
2022/05/19 02:00:32;;;;;;;;;;;18.50;88.20;;;;;;4982713;28;20091;-77
2022/05/19 02:03:02;;;;;;;;;;;18.50;88.30;;;;;;4976933;28;19933;-77
2022/05/19 02:05:33;;;;;;;;;;;18.50;88.30;;;;;;4980090;28;20449;-77
2022/05/19 02:08:01;;;;;;;;;;;18.50;88.40;;;;;;4984346;28;19939;-76
2022/05/19 02:10:31;;;;;;;;;;;18.40;88.30;;;;;;4980898;28;20350;-81
2022/05/19 02:13:01;;;;;;;;;;;18.40;88.50;;;;;;4981274;28;20263;-80
2022/05/19 02:15:30;;;;;;;;;;;18.40;88.50;;;;;;4988549;28;21908;-80
2022/05/19 02:17:57;;;;;;;;;;;18.40;88.50;;;;;;4984610;28;19967;-81
2022/05/19 02:20:25;;;;;;;;;;;18.30;88.50;;;;;;4996260;28;19940;-79
2022/05/19 02:22:53;;;;;;;;;;;18.30;88.60;;;;;;4984773;28;20020;-81
2022/05/19 02:25:24;;;;;;;;;;;18.30;88.70;;;;;;4984411;28;19940;-80
2022/05/19 02:27:52;;;;;;;;;;;18.30;88.60;;;;;;4982383;28;20089;-81
2022/05/19 02:30:21;;;;;;;;;;;18.30;88.60;;;;;;4984381;28;19940;-79
2022/05/19 02:32:49;;;;;;;;;;;18.20;88.60;;;;;;4985332;28;20000;-80
2022/05/19 02:35:17;;;;;;;;;;;18.20;88.60;;;;;;4984425;28;20077;-80
2022/05/19 02:37:48;;;;;;;;;;;18.20;89.30;;;;;;4990160;28;20425;-81
2022/05/19 02:40:16;;;;;;;;;;;18.10;88.60;;;;;;4983636;28;20048;-81
2022/05/19 02:42:43;;;;;;;;;;;18.10;88.80;;;;;;4998078;28;19933;-81
2022/05/19 02:45:11;;;;;;;;;;;18.10;88.70;;;;;;4986689;28;20216;-80
2022/05/19 02:47:38;;;;;;;;;;;18.10;88.70;;;;;;4987129;28;19933;-81
2022/05/19 02:50:10;;;;;;;;;;;18.00;88.60;;;;;;4987846;28;19944;-81
2022/05/19 02:52:37;;;;;;;;;;;18.00;88.70;;;;;;4981945;28;19933;-81
2022/05/19 02:55:04;;;;;;;;;;;18.00;88.70;;;;;;4983688;28;19925;-80
2022/05/19 02:57:31;;;;;;;;;;;17.90;88.60;;;;;;4987126;28;20516;-81
2022/05/19 02:59:59;;;;;;;;;;;17.90;88.60;;;;;;4998122;28;20399;-81
2022/05/19 03:02:26;;;;;;;;;;;17.90;88.80;;;;;;4982987;28;19933;-82
2022/05/19 03:04:53;;;;;;;;;;;17.90;88.80;;;;;;4987976;28;19940;-80
2022/05/19 03:07:22;;;;;;;;;;;17.90;88.80;;;;;;4988007;28;19943;-79
2022/05/19 03:09:49;;;;;;;;;;;17.80;88.80;;;;;;4987999;28;20404;-78
2022/05/19 03:12:19;;;;;;;;;;;17.80;88.80;;;;;;4986398;28;20040;-77
2022/05/19 03:14:46;;;;;;;;;;;17.80;88.90;;;;;;4984637;28;19932;-77
2022/05/19 03:17:12;;;;;;;;;;;17.80;88.90;;;;;;4984763;28;21272;-76
2022/05/19 03:19:40;;;;;;;;;;;17.70;88.90;;;;;;4982566;28;19936;-77
2022/05/19 03:22:07;;;;;;;;;;;17.70;88.90;;;;;;4987134;28;19929;-79
2022/05/19 03:24:36;;;;;;;;;;;17.70;88.90;;;;;;4988166;28;19933;-79
2022/05/19 03:27:03;;;;;;;;;;;17.70;88.90;;;;;;4985794;28;19940;-76
2022/05/19 03:29:33;;;;;;;;;;;17.60;88.90;;;;;;4983775;28;20060;-78
2022/05/19 03:32:00;;;;;;;;;;;17.60;88.80;;;;;;4981392;28;20354;-77
2022/05/19 03:34:27;;;;;;;;;;;17.60;88.90;;;;;;4989657;28;19955;-78
2022/05/19 03:36:54;;;;;;;;;;;17.60;88.90;;;;;;4983006;28;20147;-77
2022/05/19 03:39:22;;;;;;;;;;;17.50;88.90;;;;;;4982773;28;22936;-79
2022/05/19 03:41:50;;;;;;;;;;;17.50;88.90;;;;;;4990961;28;19933;-83
2022/05/19 03:44:21;;;;;;;;;;;17.50;88.90;;;;;;4983677;28;20069;-83
2022/05/19 03:46:48;;;;;;;;;;;17.40;88.80;;;;;;4981530;28;19929;-82
2022/05/19 03:49:15;;;;;;;;;;;17.40;88.80;;;;;;4985727;28;19951;-82
2022/05/19 03:51:54;;;;;;;;;;;17.40;88.70;;;;;;4984823;28;20138;-80
2022/05/19 03:54:30;;;;;;;;;;;17.40;88.20;;;;;;4984018;28;19939;-78
2022/05/19 03:57:01;;;;;;;;;;;17.30;88.10;;;;;;4984770;28;19930;-80
2022/05/19 03:59:31;;;;;;;;;;;17.30;88.10;;;;;;4995797;28;21414;-80
2022/05/19 04:02:03;;;;;;;;;;;17.30;88.20;;;;;;4983585;28;19929;-80
2022/05/19 04:04:36;;;;;;;;;;;17.20;88.20;;;;;;4992292;28;19940;-79
2022/05/19 04:07:06;;;;;;;;;;;17.20;88.30;;;;;;4984787;28;19940;-79
2022/05/19 04:09:33;;;;;;;;;;;17.20;88.40;;;;;;4995864;28;20517;-80
2022/05/19 04:12:02;;;;;;;;;;;17.20;88.50;;;;;;4985014;28;21397;-80
2022/05/19 04:14:34;;;;;;;;;;;17.20;88.60;;;;;;4982775;28;19940;-80
2022/05/19 04:17:01;;;;;;;;;;;17.10;88.60;;;;;;4979107;28;19940;-80
2022/05/19 04:19:30;;;;;;;;;;;17.10;88.60;;;;;;4984728;28;19939;-80
2022/05/19 04:21:59;;;;;;;;;;;17.10;88.60;;;;;;4981595;28;19972;-81
2022/05/19 04:24:29;;;;;;;;;;;17.10;89.30;;;;;;4984960;28;20071;-80
2022/05/19 04:27:06;;;;;;;;;;;17.00;88.60;;;;;;4983988;28;19933;-80
2022/05/19 04:29:33;;;;;;;;;;;17.00;88.60;;;;;;4992008;28;20088;-81
2022/05/19 04:32:00;;;;;;;;;;;17.00;88.70;;;;;;4989426;28;19935;-80
2022/05/19 04:34:30;;;;;;;;;;;17.00;88.90;;;;;;4990474;28;19933;-81
2022/05/19 04:36:57;;;;;;;;;;;17.00;88.90;;;;;;4988001;28;20395;-81
2022/05/19 04:39:24;;;;;;;;;;;17.00;88.90;;;;;;4990530;28;19940;-81
2022/05/19 04:41:56;;;;;;;;;;;16.90;88.90;;;;;;5005951;28;20073;-81
2022/05/19 04:44:27;;;;;;;;;;;16.90;89.00;;;;;;4992098;28;19952;-79
2022/05/19 04:46:55;;;;;;;;;;;16.90;89.10;;;;;;4994747;28;19944;-81
2022/05/19 04:49:33;;;;;;;;;;;16.90;89.10;;;;;;4992899;28;19933;-80
2022/05/19 04:52:05;;;;;;;;;;;16.90;89.20;;;;;;4985609;28;19929;-80
2022/05/19 04:54:35;;;;;;;;;;;16.80;89.20;;;;;;4994099;28;19937;-79
2022/05/19 04:57:02;;;;;;;;;;;16.80;89.20;;;;;;4990601;28;19940;-79
2022/05/19 04:59:33;;;;;;;;;;;16.80;89.30;;;;;;4980120;28;20015;-80
2022/05/19 05:02:06;;;;;;;;;;;16.80;89.40;;;;;;4992895;28;19929;-80
2022/05/19 05:04:34;;;;;;;;;;;16.80;89.50;;;;;;4983829;28;19934;-80
2022/05/19 05:07:04;;;;;;;;;;;16.80;89.50;;;;;;4985749;28;22737;-82
2022/05/19 05:09:34;;;;;;;;;;;16.80;89.70;;;;;;4980097;28;19933;-79
2022/05/19 05:12:01;;;;;;;;;;;16.80;90.10;;;;;;4991302;28;19941;-77
2022/05/19 05:14:28;;;;;;;;;;;16.70;90.00;;;;;;4990383;28;19933;-77
2022/05/19 05:16:58;;;;;;;;;;;16.70;89.90;;;;;;4985424;28;20141;-77
2022/05/19 05:19:25;;;;;;;;;;;16.70;89.80;;;;;;4984394;28;20067;-76
2022/05/19 05:21:53;;;;;;;;;;;16.60;89.80;;;;;;4980006;28;20050;-76
2022/05/19 05:24:19;;;;;;;;;;;16.70;89.90;;;;;;4990063;28;23003;-76
2022/05/19 05:26:46;;;;;;;;;;;16.70;89.90;;;;;;4976144;28;19961;-76
2022/05/19 05:29:13;;;;;;;;;;;16.60;89.60;;;;;;4985344;28;19929;-76
2022/05/19 05:31:41;;;;;;;;;;;16.60;89.70;;;;;;4982633;28;20721;-78
2022/05/19 05:34:09;;;;;;;;;;;16.60;89.70;;;;;;4984950;28;19933;-78
2022/05/19 05:36:36;;;;;;;;;;;16.60;89.90;;;;;;4985240;28;20428;-79
2022/05/19 05:39:03;;;;;;;;;;;16.60;90.00;;;;;;4982774;28;20528;-79
2022/05/19 05:41:30;;;;;;;;;;;16.60;90.00;;;;;;4983300;28;19975;-78
2022/05/19 05:44:02;;;;;;;;;;;16.60;90.00;;;;;;4979066;28;20020;-79
2022/05/19 05:46:35;;;;;;;;;;;16.50;90.10;;;;;;4971488;28;19932;-78
2022/05/19 05:49:02;;;;;;;;;;;16.50;90.30;;;;;;4979354;28;19925;-78
2022/05/19 05:51:40;;;;;;;;;;;16.50;90.50;;;;;;4978432;28;21219;-81
2022/05/19 05:54:10;;;;;;;;;;;16.50;90.70;;;;;;4986588;28;19929;-78
2022/05/19 05:56:43;;;;;;;;;;;16.50;90.70;;;;;;4980574;28;19933;-78
2022/05/19 05:59:13;;;;;;;;;;;16.40;90.80;;;;;;4982572;28;19940;-79
2022/05/19 06:01:40;;;;;;;;;;;16.40;90.90;;;;;;4982869;28;19929;-78
2022/05/19 06:04:07;;;;;;;;;;;16.50;91.00;;;;;;4980730;28;20008;-75
2022/05/19 06:06:34;;;;;;;;;;;16.50;91.00;;;;;;4982791;28;19986;-76
2022/05/19 06:09:04;;;;;;;;;;;16.50;91.10;;;;;;4982297;28;20023;-77
2022/05/19 06:11:31;;;;;;;;;;;16.50;91.00;;;;;;4976399;28;19925;-76
2022/05/19 06:13:58;;;;;;;;;;;16.50;91.00;;;;;;4983445;28;19926;-76
2022/05/19 06:16:25;;;;;;;;;;;16.50;91.00;;;;;;4980739;28;19956;-75
2022/05/19 06:18:52;;;;;;;;;;;16.50;90.80;;;;;;4977656;28;20056;-75
2022/05/19 06:21:21;;;;;;;;;;;16.50;90.90;;;;;;4980086;28;20386;-77
2022/05/19 06:23:52;;;;;;;;;;;16.50;91.00;;;;;;4978148;28;19964;-77
2022/05/19 06:26:30;;;;;;;;;;;16.50;90.90;;;;;;4981911;28;19929;-77
2022/05/19 06:29:00;;;;;;;;;;;16.50;91.00;;;;;;4978829;28;19936;-76
2022/05/19 06:31:32;;;;;;;;;;;16.50;91.00;;;;;;4982328;28;20909;-76
2022/05/19 06:33:59;;;;;;;;;;;16.60;91.10;;;;;;4978363;28;20406;-76
2022/05/19 06:36:26;;;;;;;;;;;16.60;91.10;;;;;;4981938;28;20023;-76
2022/05/19 06:38:59;;;;;;;;;;;16.60;91.10;;;;;;4982746;28;20006;-77
2022/05/19 06:44:17;;;;;;;;;;;16.60;91.30;;;;;;4983223;28;19963;-75
2022/05/19 06:46:53;;;;;;;;;;;16.60;91.30;;;;;;4984133;28;20367;-77
2022/05/19 06:49:26;;;;;;;;;;;16.60;91.40;;;;;;4982020;28;19959;-77
2022/05/19 06:51:57;;;;;;;;;;;16.60;91.40;;;;;;4977352;28;19933;-78
2022/05/19 06:54:24;;;;;;;;;;;16.70;91.50;;;;;;4983108;28;19933;-78
2022/05/19 06:57:01;;;;;;;;;;;16.70;91.50;;;;;;4987678;28;20468;-76
2022/05/19 06:59:30;;;;;;;;;;;16.70;91.60;;;;;;4981797;28;19951;-77
2022/05/19 07:02:00;;;;;;;;;;;16.70;91.60;;;;;;4979265;28;20320;-76
2022/05/19 07:04:32;;;;;;;;;;;16.70;91.60;;;;;;4979029;28;19925;-77
2022/05/19 07:06:59;;;;;;;;;;;16.70;91.60;;;;;;4994746;28;20315;-75
2022/05/19 07:09:26;;;;;;;;;;;16.70;91.70;;;;;;4981168;28;20395;-77
2022/05/19 07:11:55;;;;;;;;;;;16.80;91.70;;;;;;4983791;28;19929;-77
2022/05/19 07:14:23;;;;;;;;;;;16.80;91.70;;;;;;4985765;28;19983;-75
2022/05/19 07:16:51;;;;;;;;;;;16.80;91.70;;;;;;4986044;28;20010;-77
2022/05/19 07:22:11;;;;;;;;;;;16.80;91.70;;;;;;4981957;28;19929;-77
2022/05/19 07:24:40;;;;;;;;;;;16.90;91.70;;;;;;4981741;28;19975;-77
2022/05/19 07:27:12;;;;;;;;;;;16.80;91.50;;;;;;4996126;28;19940;-76
2022/05/19 07:29:39;;;;;;;;;;;16.90;91.80;;;;;;4980435;28;21247;-77
2022/05/19 07:32:07;;;;;;;;;;;16.90;91.80;;;;;;4980062;28;19929;-75
2022/05/19 07:34:36;;;;;;;;;;;16.90;91.90;;;;;;4983187;28;19933;-77
2022/05/19 07:37:06;;;;;;;;;;;17.00;91.90;;;;;;4991757;28;19980;-76
2022/05/19 07:39:34;;;;;;;;;;;17.00;92.00;;;;;;4983429;28;19925;-77
2022/05/19 07:42:04;;;;;;;;;;;17.00;92.00;;;;;;4989971;28;19965;-77
2022/05/19 07:44:33;;;;;;;;;;;17.00;92.00;;;;;;4993382;28;19933;-76
2022/05/19 07:47:03;;;;;;;;;;;17.00;92.10;;;;;;4980418;28;20087;-76
2022/05/19 07:49:36;;;;;;;;;;;17.00;92.10;;;;;;4981639;28;19925;-77
2022/05/19 07:52:03;;;;;;;;;;;17.00;92.20;;;;;;4996643;28;20955;-76
2022/05/19 07:54:34;;;;;;;;;;;17.00;92.30;;;;;;4986305;28;19937;-77
2022/05/19 07:57:01;;;;;;;;;;;17.10;92.40;;;;;;4985555;28;19933;-76
2022/05/19 07:59:36;;;;;;;;;;;17.10;92.40;;;;;;4986407;28;19936;-77
2022/05/19 08:02:10;;;;;;;;;;;17.10;92.70;;;;;;4982604;28;20236;-76
2022/05/19 08:04:37;;;;;;;;;;;17.10;92.40;;;;;;4982993;28;19929;-78
2022/05/19 08:07:04;;;;;;;;;;;17.10;92.40;;;;;;4986400;28;19957;-75
2022/05/19 08:12:17;;;;;;;;;;;17.10;92.50;;;;;;4985425;28;19921;-76
2022/05/19 08:17:42;;;;;;;;;;;17.20;93.10;;;;;;4911355;28;20384;-77
2022/05/19 08:20:14;;;;;;;;;;;17.20;92.90;;;;;;4963362;28;20838;-81
2022/05/19 08:22:41;;;;;;;;;;;17.20;92.90;;;;;;4982948;28;20319;-79
2022/05/19 08:25:11;;;;;;;;;;;17.20;93.00;;;;;;4980724;28;19929;-78
2022/05/19 08:27:44;;;;;;;;;;;17.30;93.30;;;;;;4981792;28;19925;-78
2022/05/19 08:30:12;;;;;;;;;;;17.20;93.60;;;;;;4982532;28;19933;-79
2022/05/19 08:32:42;;;;;;;;;;;17.20;93.50;;;;;;4987336;28;19929;-77
2022/05/19 08:35:14;;;;;;;;;;;17.30;93.80;;;;;;4976860;28;21737;-78
2022/05/19 08:37:45;;;;;;;;;;;17.30;93.70;;;;;;4989776;28;20446;-78
2022/05/19 08:40:12;;;;;;;;;;;17.30;94.10;;;;;;4982217;28;19925;-79
2022/05/19 08:42:43;;;;;;;;;;;17.30;94.40;;;;;;4981725;28;19929;-79
2022/05/19 08:45:14;;;;;;;;;;;17.30;94.40;;;;;;4982515;28;19925;-78
2022/05/19 08:47:41;;;;;;;;;;;17.30;94.60;;;;;;4978736;28;20296;-79
2022/05/19 08:50:18;;;;;;;;;;;17.40;94.60;;;;;;4981657;28;19943;-80
2022/05/19 08:52:52;;;;;;;;;;;17.40;94.80;;;;;;4980441;28;20130;-77
2022/05/19 08:55:20;;;;;;;;;;;17.40;94.90;;;;;;4984010;28;20368;-77
2022/05/19 08:57:58;;;;;;;;;;;17.40;94.80;;;;;;4991217;28;19933;-76
2022/05/19 09:00:27;;;;;;;;;;;17.40;94.70;;;;;;4984674;28;19980;-79
2022/05/19 09:03:04;;;;;;;;;;;17.50;95.40;;;;;;4979636;28;19933;-79
2022/05/19 09:05:42;;;;;;;;;;;17.50;95.30;;;;;;4985006;28;19932;-78
2022/05/19 09:08:16;;;;;;;;;;;17.50;94.80;;;;;;4992730;28;19975;-79
2022/05/19 09:10:50;;;;;;;;;;;17.50;95.20;;;;;;4979168;28;20019;-76
2022/05/19 09:13:26;;;;;;;;;;;17.60;95.60;;;;;;4998521;28;19933;-77
2022/05/19 09:15:53;;;;;;;;;;;17.60;95.80;;;;;;4981345;28;19932;-77
2022/05/19 09:18:27;;;;;;;;;;;17.60;96.00;;;;;;4980012;28;19983;-76
2022/05/19 09:20:56;;;;;;;;;;;17.60;96.10;;;;;;4979280;28;19933;-76
2022/05/19 09:23:24;;;;;;;;;;;17.60;95.50;;;;;;4980625;28;19932;-76
2022/05/19 09:25:54;;;;;;;;;;;17.70;96.20;;;;;;4979741;28;20324;-77
2022/05/19 09:28:21;;;;;;;;;;;17.70;96.10;;;;;;4983042;28;19925;-77
2022/05/19 09:30:52;;;;;;;;;;;17.70;95.80;;;;;;4978755;28;20021;-77
2022/05/19 09:33:21;;;;;;;;;;;17.80;96.50;;;;;;4982764;28;19934;-76
2022/05/19 09:35:49;;;;;;;;;;;17.80;96.10;;;;;;4983406;28;19933;-77
2022/05/19 09:38:26;;;;;;;;;;;17.80;96.20;;;;;;4981052;28;19961;-75
2022/05/19 09:40:56;;;;;;;;;;;17.80;96.40;;;;;;4978420;28;20226;-76
2022/05/19 09:43:27;;;;;;;;;;;17.80;96.50;;;;;;4980989;28;19940;-76
2022/05/19 09:46:03;;;;;;;;;;;17.90;96.90;;;;;;4980020;28;19940;-75
2022/05/19 09:48:33;;;;;;;;;;;17.90;97.00;;;;;;4979218;28;20035;-79
2022/05/19 09:51:01;;;;;;;;;;;18.00;97.30;;;;;;4979560;28;19940;-79
2022/05/19 09:53:40;;;;;;;;;;;18.00;97.40;;;;;;4984474;28;19944;-79
2022/05/19 09:56:09;;;;;;;;;;;18.00;97.20;;;;;;4979872;28;19944;-79
2022/05/19 09:58:43;;;;;;;;;;;18.10;97.40;;;;;;4979330;28;19933;-78
2022/05/19 10:01:19;;;;;;;;;;;18.10;97.30;;;;;;4981410;28;19943;-79
2022/05/19 10:03:59;;;;;;;;;;;18.10;97.50;;;;;;4982411;28;19932;-81
2022/05/19 10:06:54;;;;;;;;;;;18.10;97.40;;;;;;4986585;28;20356;-80
2022/05/19 10:09:24;;;;;;;;;;;18.20;97.50;;;;;;4988812;28;20007;-79
2022/05/19 10:11:52;;;;;;;;;;;18.20;97.40;;;;;;4981678;28;19933;-79
2022/05/19 10:14:21;;;;;;;;;;;18.30;97.60;;;;;;4992897;28;20001;-79
2022/05/19 10:17:01;;;;;;;;;;;18.30;97.90;;;;;;5002457;28;20494;-81
2022/05/19 10:19:36;;;;;;;;;;;18.30;97.80;;;;;;4985456;28;20562;-81
2022/05/19 10:22:20;;;;;;;;;;;18.30;98.40;;;;;;4986127;28;19937;-81
2022/05/19 10:25:06;;;;;;;;;;;18.40;98.50;;;;;;4984431;28;19996;-79
2022/05/19 10:33:16;;;;;;;;;;;18.50;98.60;;;;;;4983006;28;20141;-78
2022/05/19 10:35:49;;;;;;;;;;;18.60;98.70;;;;;;4977226;28;19953;-76
2022/05/19 10:38:30;;;;;;;;;;;18.60;99.00;;;;;;4987012;28;19967;-77
2022/05/19 10:41:09;;;;;;;;;;;18.70;99.00;;;;;;4972731;28;20057;-76
2022/05/19 10:43:42;;;;;;;;;;;18.70;99.00;;;;;;4983394;28;20341;-79
2022/05/19 10:46:13;;;;;;;;;;;18.70;99.10;;;;;;4981748;28;20235;-79
2022/05/19 10:48:49;;;;;;;;;;;18.70;98.90;;;;;;4982953;28;19940;-76
2022/05/19 10:51:17;;;;;;;;;;;18.80;99.00;;;;;;4980068;28;20063;-77
2022/05/19 10:53:50;;;;;;;;;;;18.80;99.00;;;;;;4975333;28;20298;-78
2022/05/19 10:56:42;;;;;;;;;;;18.80;99.10;;;;;;4979099;28;20114;-77
2022/05/19 10:59:21;;;;;;;;;;;18.90;99.40;;;;;;4976909;28;20177;-79
2022/05/19 11:01:54;;;;;;;;;;;18.90;99.10;;;;;;4979276;28;19933;-77
2022/05/19 11:04:30;;;;;;;;;;;19.00;99.40;;;;;;4981004;28;20367;-77
2022/05/19 11:07:10;;;;;;;;;;;19.10;99.80;;;;;;4977897;28;19933;-78
2022/05/19 11:09:42;;;;;;;;;;;19.10;99.90;;;;;;4982074;28;20648;-78
2022/05/19 11:12:15;;;;;;;;;;;19.20;99.80;;;;;;4983502;28;19933;-78
2022/05/19 11:14:51;;;;;;;;;;;19.20;99.90;;;;;;4986911;28;19941;-78
2022/05/19 11:17:23;;;;;;;;;;;19.20;99.90;;;;;;4983110;28;20271;-78
2022/05/19 11:19:59;;;;;;;;;;;19.30;99.90;;;;;;4986285;28;19957;-79
2022/05/19 11:22:31;;;;;;;;;;;19.30;99.90;;;;;;4988600;28;20277;-78
2022/05/19 11:27:48;;;;;;;;;;;19.40;99.90;;;;;;5001194;28;19960;-78
2022/05/19 11:30:22;;;;;;;;;;;19.50;99.90;;;;;;4984202;28;19929;-77
2022/05/19 11:32:51;;;;;;;;;;;19.60;99.90;;;;;;4989461;28;19937;-77
2022/05/19 11:35:22;;;;;;;;;;;19.60;99.90;;;;;;4989977;28;19933;-82
2022/05/19 11:37:52;;;;;;;;;;;19.70;99.90;;;;;;4988066;28;19933;-80
2022/05/19 11:40:22;;;;;;;;;;;19.70;99.90;;;;;;5003548;28;19979;-79
2022/05/19 11:42:51;;;;;;;;;;;19.70;99.90;;;;;;4982385;28;24737;-79
2022/05/19 11:45:25;;;;;;;;;;;19.80;99.90;;;;;;4986236;28;20063;-80
2022/05/19 11:56:27;;;;;;;;;;;20.00;99.90;;;;;;4984702;28;20639;-79
2022/05/19 11:58:55;;;;;;;;;;;20.10;99.90;;;;;;4998048;28;19933;-79
2022/05/19 12:01:29;;;;;;;;;;;20.10;99.90;;;;;;4996759;28;20399;-80
2022/05/19 12:04:01;;;;;;;;;;;20.20;99.90;;;;;;4980363;28;20564;-79
2022/05/19 12:06:29;;;;;;;;;;;20.20;99.90;;;;;;4980553;28;20102;-79
2022/05/19 12:08:58;;;;;;;;;;;20.30;99.90;;;;;;4984351;28;20047;-81
2022/05/19 12:11:27;;;;;;;;;;;20.30;99.90;;;;;;4983794;28;19929;-80
2022/05/19 12:14:08;;;;;;;;;;;20.40;99.90;;;;;;4982228;28;19939;-79
2022/05/19 12:16:45;;;;;;;;;;;20.40;99.90;;;;;;5028983;22;19993;-77
2022/05/19 12:19:32;;;;;;;;;;;20.40;99.90;;;;;;5031871;28;20019;-76
2022/05/19 12:21:59;;;;;;;;;;;20.60;99.90;;;;;;5036157;28;20412;-75
2022/05/19 12:24:27;;;;;;;;;;;20.60;99.90;;;;;;5039008;28;20019;-76
2022/05/19 12:26:57;;;;;;;;;;;20.70;99.90;;;;;;5036936;28;20022;-77
2022/05/19 12:29:39;;;;;;;;;;;20.70;99.90;;;;;;5039284;28;19925;-76
2022/05/19 12:32:14;;;;;;;;;;;20.80;99.90;;;;;;5040874;28;20437;-76
2022/05/19 12:34:45;;;;;;;;;;;20.90;99.90;;;;;;5035457;28;19933;-76
2022/05/19 12:37:43;;;;;;;;;;;20.90;99.90;;;;;;5040930;28;19937;-77
2022/05/19 12:40:32;;;;;;;;;;;21.00;99.90;;;;;;4982902;28;19949;-76
2022/05/19 12:43:09;;;;;;;;;;;21.00;99.90;;;;;;5028959;28;19928;-77
2022/05/19 12:45:49;;;;;;;;;;;21.10;99.90;;;;;;5042975;28;19925;-77
2022/05/19 12:48:40;;;;;;;;;;;21.20;99.90;;;;;;5041034;28;19948;-77
2022/05/19 12:51:30;;;;;;;;;;;21.20;99.90;;;;;;5042833;28;19966;-76
2022/05/19 12:54:05;;;;;;;;;;;21.30;99.90;;;;;;5039073;28;19952;-77
2022/05/19 12:56:53;;;;;;;;;;;21.30;99.90;;;;;;5047878;28;19939;-78
2022/05/19 12:59:34;;;;;;;;;;;21.40;99.90;;;;;;5054390;28;20092;-78
2022/05/19 13:02:04;;;;;;;;;;;21.40;99.70;;;;;;5043127;28;19972;-77
2022/05/19 13:04:36;;;;;;;;;;;21.50;99.90;;;;;;5034248;28;20003;-78
2022/05/19 13:07:09;;;;;;;;;;;21.50;99.90;;;;;;5032450;28;20709;-77
2022/05/19 13:09:36;;;;;;;;;;;21.60;99.90;;;;;;5043037;28;19929;-77
2022/05/19 13:12:07;;;;;;;;;;;21.70;99.90;;;;;;5038278;28;19939;-77
2022/05/19 13:14:40;;;;;;;;;;;21.70;99.90;;;;;;5040042;28;19924;-77
2022/05/19 13:17:12;;;;;;;;;;;21.80;99.90;;;;;;5037657;28;19925;-77
2022/05/19 13:19:40;;;;;;;;;;;21.90;99.90;;;;;;5038915;28;19925;-77
2022/05/19 13:22:09;;;;;;;;;;;21.90;99.90;;;;;;5036289;28;19949;-77
2022/05/19 13:24:39;;;;;;;;;;;22.00;99.90;;;;;;5036960;28;19925;-77
2022/05/19 13:32:38;;;;;;;;;;;22.20;99.90;;;;;;5036188;28;19933;-77
2022/05/19 13:35:07;;;;;;;;;;;22.30;99.90;;;;;;5030583;28;19995;-77
2022/05/19 13:37:36;;;;;;;;;;;22.30;99.90;;;;;;5035504;28;20007;-77
2022/05/19 13:40:14;;;;;;;;;;;22.40;99.90;;;;;;5033291;28;19933;-78
2022/05/19 13:42:44;;;;;;;;;;;22.50;99.90;;;;;;5036511;28;20037;-77
2022/05/19 13:45:11;;;;;;;;;;;22.50;99.90;;;;;;5057830;28;19928;-76
2022/05/19 13:47:41;;;;;;;;;;;22.60;99.90;;;;;;5035277;28;19925;-76
2022/05/19 13:50:10;;;;;;;;;;;22.70;99.90;;;;;;5038886;28;20314;-77
2022/05/19 13:52:44;;;;;;;;;;;22.70;99.90;;;;;;5030049;28;19933;-77
2022/05/19 13:55:21;;;;;;;;;;;22.80;99.90;;;;;;5040632;28;20036;-77
2022/05/19 13:57:49;;;;;;;;;;;;;;;;;;5036148;28;20479;-77
2022/05/19 14:00:16;;;;;;;;;;;22.90;99.50;;;;;;5034797;28;20419;-76
2022/05/19 14:02:45;;;;;;;;;;;22.90;99.70;;;;;;5036291;28;19929;-76
2022/05/19 14:05:16;;;;;;;;;;;22.90;99.70;;;;;;5037727;28;20052;-77
2022/05/19 14:07:45;;;;;;;;;;;23.00;99.70;;;;;;5037475;28;19971;-77
2022/05/19 14:10:13;;;;;;;;;;;23.10;99.70;;;;;;5028200;28;19935;-77
2022/05/19 14:12:42;;;;;;;;;;;23.10;99.70;;;;;;5036155;28;19933;-76
2022/05/19 14:15:10;;;;;;;;;;;23.10;99.70;;;;;;5020729;28;19933;-76
2022/05/19 14:17:39;;;;;;;;;;;23.20;99.70;;;;;;5037213;28;19935;-75
2022/05/19 14:20:09;;;;;;;;;;;23.30;99.50;;;;;;5026246;28;19932;-76
2022/05/19 14:22:36;;;;;;;;;;;23.30;98.70;;;;;;5033377;28;19968;-76
2022/05/19 14:25:09;;;;;;;;;;;23.40;98.00;;;;;;5030250;28;22835;-76
2022/05/19 14:27:38;;;;;;;;;;;23.50;97.90;;;;;;5032301;28;19979;-75
2022/05/19 14:30:05;;;;;;;;;;;23.60;97.80;;;;;;5028188;28;20442;-75
2022/05/19 14:32:34;;;;;;;;;;;23.60;98.10;;;;;;5020156;28;20307;-76
2022/05/19 14:35:08;;;;;;;;;;;23.50;98.30;;;;;;5032738;28;20368;-76
2022/05/19 14:37:38;;;;;;;;;;;23.50;98.40;;;;;;5034057;28;19924;-76
2022/05/19 14:43:07;;;;;;;;;;;23.60;98.50;;;;;;5033636;28;19968;-75
2022/05/19 14:45:35;;;;;;;;;;;23.60;98.40;;;;;;5032538;28;20306;-75
2022/05/19 14:48:02;;;;;;;;;;;23.60;98.50;;;;;;5035207;28;19952;-75
2022/05/19 14:50:31;;;;;;;;;;;23.60;98.60;;;;;;5030305;28;20002;-75
2022/05/19 14:53:00;;;;;;;;;;;23.70;98.80;;;;;;5037728;28;19939;-76
2022/05/19 14:55:31;;;;;;;;;;;23.70;98.90;;;;;;5032960;28;20010;-76
2022/05/19 14:58:00;;;;;;;;;;;23.70;99.00;;;;;;5040826;28;19951;-76
2022/05/19 15:00:29;;;;;;;;;;;23.70;98.80;;;;;;5040033;28;19964;-76
2022/05/19 15:02:56;;;;;;;;;;;23.60;98.70;;;;;;5034294;28;19929;-75
2022/05/19 15:05:24;;;;;;;;;;;23.60;98.80;;;;;;5044046;28;19933;-75
2022/05/19 15:07:52;;;;;;;;;;;23.60;98.70;;;;;;5039022;28;20307;-76
2022/05/19 15:10:22;;;;;;;;;;;23.60;98.60;;;;;;5043916;28;20306;-75
2022/05/19 15:12:52;;;;;;;;;;;23.60;98.60;;;;;;5039618;28;19925;-75
2022/05/19 15:15:19;;;;;;;;;;;23.60;98.60;;;;;;5039297;28;19925;-76